createdAt,value
2022-11-25T00:01:51.792Z,1.52
2022-11-25T00:06:56.478Z,1.23
2022-11-25T00:11:59.749Z,3.10
2022-11-25T00:17:03.177Z,0.85
2022-11-25T00:22:07.808Z,1.10
2022-11-25T00:27:11.121Z,2.13
2022-11-25T00:32:14.856Z,1.15
2022-11-25T00:37:19.728Z,1.40
2022-11-25T00:42:40.273Z,1.33
2022-11-25T00:47:43.771Z,0.98
2022-11-25T00:52:48.445Z,1.10
2022-11-25T00:57:51.745Z,2.17
2022-11-25T01:02:54.985Z,0.85
2022-11-25T01:07:59.610Z,1.40
2022-11-25T01:13:02.874Z,1.38
2022-11-25T01:18:06.235Z,1.00
2022-11-25T01:23:11.782Z,1.92
2022-11-25T01:28:15.056Z,1.20
2022-11-25T01:33:18.452Z,1.35
2022-11-25T01:38:23.151Z,2.07
2022-11-25T01:43:26.927Z,1.70
2022-11-25T01:48:38.841Z,4.97
2022-11-25T01:53:43.514Z,1.40
2022-11-25T01:58:49.286Z,1.73
2022-11-25T02:03:54.542Z,0.85
2022-11-25T02:09:04.102Z,2.25
2022-11-25T02:14:08.156Z,1.23
2022-11-25T02:19:20.694Z,2.05
2022-11-25T02:24:32.640Z,1.90
2022-11-25T02:29:39.276Z,1.58
2022-11-25T02:34:48.099Z,1.10
2022-11-25T02:39:52.761Z,1.10
2022-11-25T02:44:57.458Z,1.13
2022-11-25T02:50:00.847Z,1.90
2022-11-25T02:55:04.210Z,1.73
2022-11-25T03:00:10.736Z,1.88
2022-11-25T03:05:14.763Z,1.27
2022-11-25T03:10:18.438Z,1.33
2022-11-25T03:15:24.105Z,1.65
2022-11-25T03:20:27.651Z,1.02
2022-11-25T03:25:31.025Z,3.00
2022-11-25T03:30:35.834Z,1.30
2022-11-25T03:35:40.852Z,0.80
2022-11-25T03:40:44.198Z,1.65
2022-11-25T03:45:51.387Z,1.67
2022-11-25T03:50:54.875Z,1.70
2022-11-25T03:56:01.412Z,1.20
2022-11-25T04:01:07.455Z,1.73
2022-11-25T04:06:10.964Z,1.67
2022-11-25T04:11:15.590Z,1.30
2022-11-25T04:16:26.135Z,0.90
2022-11-25T04:21:30.744Z,1.13
2022-11-25T04:26:35.661Z,1.83
2022-11-25T04:31:40.420Z,2.00
2022-11-25T04:36:43.822Z,1.80
2022-11-25T04:41:47.977Z,2.30
2022-11-25T04:46:52.743Z,2.03
2022-11-25T04:51:57.422Z,1.37
2022-11-25T04:57:01.793Z,2.03
2022-11-25T05:02:06.785Z,3.00
2022-11-25T05:07:14.278Z,1.98
2022-11-25T05:12:21.368Z,1.73
2022-11-25T05:17:31.030Z,2.72
2022-11-25T05:22:36.294Z,2.83
2022-11-25T05:27:42.198Z,1.70
2022-11-25T05:32:48.092Z,1.23
2022-11-25T05:37:51.613Z,2.20
2022-11-25T05:42:55.385Z,2.53
2022-11-25T05:48:00.134Z,3.47
2022-11-25T05:53:05.080Z,2.40
2022-11-25T05:58:11.492Z,2.37
2022-11-25T06:03:19.110Z,1.60
2022-11-25T06:08:23.326Z,2.03
2022-11-25T06:13:27.223Z,1.90
2022-11-25T06:18:32.089Z,1.53
2022-11-25T06:23:36.170Z,1.60
2022-11-25T06:28:40.070Z,2.63
2022-11-25T06:33:48.520Z,1.93
2022-11-25T06:38:53.778Z,5.53
2022-11-25T06:43:57.432Z,3.07
2022-11-25T06:49:02.202Z,4.53
2022-11-25T06:54:05.802Z,2.70
2022-11-25T06:59:09.607Z,4.18
2022-11-25T07:04:14.679Z,2.80
2022-11-25T07:09:19.469Z,5.00
2022-11-25T07:14:22.967Z,2.43
2022-11-25T07:19:27.847Z,2.00
2022-11-25T07:24:31.234Z,2.97
2022-11-25T07:29:54.511Z,3.27
2022-11-25T07:35:00.477Z,3.80
2022-11-25T07:40:03.808Z,5.73
2022-11-25T07:45:08.152Z,4.47
2022-11-25T07:50:22.688Z,5.40
2022-11-25T07:55:25.985Z,5.30
2022-11-25T08:00:29.338Z,5.90
2022-11-25T08:05:35.695Z,3.37
2022-11-25T08:10:41.601Z,3.70
2022-11-25T08:15:45.085Z,3.17
2022-11-25T08:20:50.047Z,3.97
2022-11-25T08:25:55.630Z,2.70
2022-11-25T08:31:03.808Z,3.30
2022-11-25T08:36:09.682Z,2.53
2022-11-25T08:41:13.822Z,3.63
2022-11-25T08:46:19.884Z,2.58
2022-11-25T08:51:27.009Z,2.80
2022-11-25T08:56:30.628Z,1.50
2022-11-25T09:01:34.303Z,3.10
2022-11-25T09:06:40.566Z,2.65
2022-11-25T09:11:44.108Z,2.10
2022-11-25T09:16:47.457Z,1.73
2022-11-25T09:21:52.302Z,2.40
2022-11-25T09:26:55.887Z,1.90
2022-11-25T09:31:59.232Z,1.98
2022-11-25T09:37:03.916Z,2.67
2022-11-25T09:42:40.920Z,3.88
2022-11-25T09:47:57.327Z,2.53
2022-11-25T09:53:09.497Z,1.08
2022-11-25T09:58:24.236Z,2.30
2022-11-25T10:03:35.861Z,2.58
2022-11-25T10:08:42.854Z,1.17
2022-11-25T10:13:54.891Z,1.40
2022-11-25T10:19:02.073Z,2.15
2022-11-25T10:24:14.627Z,2.30
2022-11-25T10:29:25.967Z,2.88
2022-11-25T10:34:35.613Z,1.92
2022-11-25T10:39:40.439Z,3.17
2022-11-25T10:44:43.980Z,2.55
2022-11-25T10:50:01.972Z,2.72
2022-11-25T10:55:15.675Z,4.93
2022-11-25T11:00:32.257Z,2.40
2022-11-25T11:05:35.707Z,2.72
2022-11-25T11:10:41.594Z,1.63
2022-11-25T11:15:48.124Z,2.17
2022-11-25T11:20:54.309Z,2.50
2022-11-25T11:26:05.172Z,2.83
2022-11-25T11:31:19.251Z,3.15
2022-11-25T11:36:39.679Z,3.72
2022-11-25T11:41:49.658Z,2.10
2022-11-25T11:47:04.698Z,3.63
2022-11-25T11:52:15.551Z,1.50
2022-11-25T11:57:29.284Z,2.40
2022-11-25T12:02:48.327Z,2.33
2022-11-25T12:08:02.846Z,2.25
2022-11-25T12:13:17.334Z,3.65
2022-11-25T12:18:36.252Z,2.75
2022-11-25T12:23:48.005Z,1.75
2022-11-25T12:28:59.238Z,3.10
2022-11-25T12:34:08.151Z,1.77
2022-11-25T12:39:23.045Z,2.10
2022-11-25T12:44:34.769Z,2.85
2022-11-25T12:49:43.971Z,1.85
2022-11-25T12:55:19.017Z,1.85
2022-11-25T13:00:41.397Z,3.50
2022-11-25T13:06:07.382Z,1.60
2022-11-25T13:11:28.921Z,1.88
2022-11-25T13:16:35.348Z,3.60
2022-11-25T13:21:55.655Z,2.53
2022-11-25T13:27:01.323Z,4.93
2022-11-25T13:32:43.375Z,2.40
2022-11-25T13:37:46.752Z,3.15
2022-11-25T13:42:51.228Z,3.20
2022-11-25T13:47:57.611Z,6.88
2022-11-25T13:53:03.340Z,2.65
2022-11-25T13:58:20.582Z,4.72
2022-11-25T14:03:58.009Z,4.82
2022-11-25T14:09:04.883Z,4.25
2022-11-25T14:14:28.821Z,3.30
2022-11-25T14:20:05.377Z,4.68
2022-11-25T14:25:23.352Z,3.70
2022-11-25T14:30:27.510Z,4.57
2022-11-25T14:35:44.869Z,5.38
2022-11-25T14:40:55.190Z,7.60
2022-11-25T14:46:11.820Z,4.60
2022-11-25T14:51:18.647Z,7.00
2022-11-25T14:56:29.703Z,4.40
2022-11-25T15:01:34.624Z,4.80
2022-11-25T15:06:42.677Z,3.72
2022-11-25T15:11:46.176Z,5.60
2022-11-25T15:16:49.687Z,3.58
2022-11-25T15:22:23.080Z,3.05
2022-11-25T15:27:26.437Z,2.58
2022-11-25T15:32:32.612Z,5.10
2022-11-25T15:37:38.736Z,4.32
2022-11-25T15:42:43.964Z,5.50
2022-11-25T15:47:47.424Z,3.28
2022-11-25T15:52:55.152Z,4.18
2022-11-25T15:58:03.802Z,3.55
2022-11-25T16:03:20.662Z,4.13
2022-11-25T16:08:37.541Z,3.50
2022-11-25T16:13:41.367Z,4.70
2022-11-25T16:18:53.124Z,3.55
2022-11-25T16:24:00.583Z,4.15
2022-11-25T16:29:15.816Z,3.10
2022-11-25T16:34:21.220Z,3.53
2022-11-25T16:39:26.691Z,2.95
2022-11-25T16:44:31.505Z,3.67
2022-11-25T16:49:35.515Z,3.55
2022-11-25T16:54:41.949Z,4.50
2022-11-25T16:59:47.063Z,4.88
2022-11-25T17:04:51.272Z,3.60
2022-11-25T17:09:58.076Z,2.33
2022-11-25T17:15:03.484Z,6.03
2022-11-25T17:20:15.602Z,8.38
2022-11-25T17:25:21.668Z,8.25
2022-11-25T17:30:27.710Z,11.40
2022-11-25T17:35:31.680Z,10.10
2022-11-25T17:40:39.802Z,10.38
2022-11-25T17:45:43.829Z,11.57
2022-11-25T17:50:48.218Z,7.50
2022-11-25T17:55:54.333Z,11.27
2022-11-25T18:00:59.742Z,11.23
2022-11-25T18:06:06.311Z,11.75
2022-11-25T18:11:17.853Z,11.82
2022-11-25T18:16:23.830Z,12.98
2022-11-25T18:21:29.308Z,11.93
2022-11-25T18:26:38.507Z,7.97
2022-11-25T18:31:44.063Z,10.23
2022-11-25T18:36:50.350Z,9.02
2022-11-25T18:42:01.140Z,10.57
2022-11-25T18:47:06.698Z,10.52
2022-11-25T18:52:11.423Z,12.10
2022-11-25T18:57:18.044Z,12.13
2022-11-25T19:02:22.874Z,10.43
2022-11-25T19:07:27.823Z,12.25
2022-11-25T19:12:34.292Z,10.27
2022-11-25T19:17:41.211Z,12.50
2022-11-25T19:22:45.945Z,12.23
2022-11-25T19:27:55.013Z,13.35
2022-11-25T19:33:05.942Z,12.90
2022-11-25T19:38:15.907Z,9.10
2022-11-25T19:43:22.768Z,8.73
2022-11-25T19:48:30.536Z,9.77
2022-11-25T19:53:34.903Z,11.43
2022-11-25T19:58:41.402Z,10.02
2022-11-25T20:03:48.559Z,7.85
2022-11-25T20:08:58.422Z,8.02
2022-11-25T20:14:08.479Z,7.40
2022-11-25T20:19:18.793Z,7.47
2022-11-25T20:24:23.945Z,7.60
2022-11-25T20:29:30.735Z,8.57
2022-11-25T20:34:41.883Z,5.88
2022-11-25T20:39:47.464Z,6.53
2022-11-25T20:44:57.584Z,8.98
2022-11-25T20:50:03.763Z,7.70
2022-11-25T20:55:21.025Z,6.03
2022-11-25T21:00:28.587Z,11.15
2022-11-25T21:05:35.398Z,4.85
2022-11-25T21:10:40.233Z,4.63
2022-11-25T21:15:45.528Z,4.13
2022-11-25T21:20:49.853Z,6.32
2022-11-25T21:25:53.978Z,5.40
2022-11-25T21:30:59.333Z,5.47
2022-11-25T21:36:03.397Z,5.83
2022-11-25T21:41:07.147Z,5.68
2022-11-25T21:46:15.332Z,7.73
2022-11-25T21:51:21.897Z,5.10
2022-11-25T21:56:28.320Z,7.72
2022-11-25T22:01:33.759Z,5.07
2022-11-25T22:06:37.065Z,6.40
2022-11-25T22:11:44.254Z,5.03
2022-11-25T22:16:49.061Z,5.00
2022-11-25T22:21:52.544Z,4.17
2022-11-25T22:26:58.257Z,3.63
2022-11-25T22:32:08.249Z,3.53
2022-11-25T22:37:19.538Z,4.73
2022-11-25T22:42:28.047Z,3.60
2022-11-25T22:47:37.092Z,3.33
2022-11-25T22:52:40.303Z,3.83
2022-11-25T22:57:43.688Z,3.05
2022-11-25T23:02:49.471Z,2.58
2022-11-25T23:07:52.982Z,1.87
2022-11-25T23:12:56.889Z,1.83
2022-11-25T23:18:03.333Z,1.53
2022-11-25T23:23:14.082Z,2.70
2022-11-25T23:28:17.453Z,2.75
2022-11-25T23:33:30.649Z,2.47
2022-11-25T23:38:34.114Z,2.53
2022-11-25T23:43:37.394Z,2.90
2022-11-25T23:48:43.380Z,2.53
2022-11-25T23:53:46.797Z,1.88
2022-11-25T23:58:50.638Z,2.85
